Time;durP1;ratioP1;P1;durP2;ratioP2;P2;SDS_P1;SDS_P2;PMS_P1;PMS_P2;Temp;Humidity;BMP_temperature;BMP_pressure;BME280_temperature;BME280_humidity;BME280_pressure;Samples;Min_cycle;Max_cycle;Signal;HPM_P1;HPM_P2
2023/12/06 00:01:36;;;;;;;;;;;4.70;99.90;;;;;;5034417;28;19925;-72
2023/12/06 00:04:03;;;;;;;;;;;4.70;99.90;;;;;;5013740;28;20431;-72
2023/12/06 00:06:30;;;;;;;;;;;4.70;99.90;;;;;;5019466;28;20272;-72
2023/12/06 00:08:57;;;;;;;;;;;4.70;99.90;;;;;;5032118;28;19972;-72
2023/12/06 00:11:25;;;;;;;;;;;4.60;99.90;;;;;;5032456;28;19978;-72
2023/12/06 00:13:52;;;;;;;;;;;4.70;99.90;;;;;;5032048;28;19925;-72
2023/12/06 00:16:18;;;;;;;;;;;4.70;99.90;;;;;;5033641;28;19929;-71
2023/12/06 00:18:45;;;;;;;;;;;4.70;99.90;;;;;;5029509;28;20396;-72
2023/12/06 00:21:12;;;;;;;;;;;4.70;99.90;;;;;;5032671;28;19925;-72
2023/12/06 00:23:39;;;;;;;;;;;4.70;99.90;;;;;;5032465;28;19925;-71
2023/12/06 00:26:06;;;;;;;;;;;4.70;99.90;;;;;;5032582;28;19968;-72
2023/12/06 00:28:34;;;;;;;;;;;4.80;99.90;;;;;;5031187;28;19926;-72
2023/12/06 00:31:00;;;;;;;;;;;4.80;99.90;;;;;;5031927;28;19979;-73
2023/12/06 00:33:28;;;;;;;;;;;4.80;99.90;;;;;;5032681;28;19925;-73
2023/12/06 00:35:55;;;;;;;;;;;4.80;99.90;;;;;;5033085;28;19932;-72
2023/12/06 00:38:22;;;;;;;;;;;4.80;99.90;;;;;;5032615;28;19925;-73
2023/12/06 00:40:49;;;;;;;;;;;4.80;99.90;;;;;;5032927;28;20441;-73
2023/12/06 00:43:15;;;;;;;;;;;4.80;99.90;;;;;;5029731;28;19961;-73
2023/12/06 00:45:43;;;;;;;;;;;4.80;99.90;;;;;;5032754;28;19968;-73
2023/12/06 00:48:10;;;;;;;;;;;4.80;99.90;;;;;;5030575;28;19979;-72
2023/12/06 00:50:37;;;;;;;;;;;4.80;99.90;;;;;;5031173;28;19925;-73
2023/12/06 00:53:04;;;;;;;;;;;4.80;99.90;;;;;;5025840;28;19968;-72
2023/12/06 00:55:30;;;;;;;;;;;4.80;99.90;;;;;;5032035;28;19995;-72
2023/12/06 00:57:57;;;;;;;;;;;4.80;99.90;;;;;;5031266;28;19987;-73
2023/12/06 01:00:24;;;;;;;;;;;4.80;99.90;;;;;;5028039;28;20333;-72
2023/12/06 01:02:52;;;;;;;;;;;4.80;99.90;;;;;;5030867;28;19925;-73
2023/12/06 01:05:19;;;;;;;;;;;4.90;99.90;;;;;;5030986;28;19933;-72
2023/12/06 01:07:46;;;;;;;;;;;4.90;99.90;;;;;;5029375;28;19972;-73
2023/12/06 01:10:13;;;;;;;;;;;4.90;99.90;;;;;;5014496;28;19926;-72
2023/12/06 01:12:39;;;;;;;;;;;4.90;99.90;;;;;;5027552;28;19929;-72
2023/12/06 01:15:06;;;;;;;;;;;4.90;99.90;;;;;;5012203;28;20296;-72
2023/12/06 01:17:33;;;;;;;;;;;4.90;99.90;;;;;;5029547;28;19972;-72
2023/12/06 01:20:02;;;;;;;;;;;4.90;99.90;;;;;;5032364;28;19935;-73
2023/12/06 01:22:29;;;;;;;;;;;4.90;99.90;;;;;;5031393;28;20382;-72
2023/12/06 01:24:57;;;;;;;;;;;4.90;99.90;;;;;;5032591;28;19925;-72
2023/12/06 01:27:24;;;;;;;;;;;4.90;99.90;;;;;;5034228;28;20304;-73
2023/12/06 01:29:51;;;;;;;;;;;4.90;99.90;;;;;;5015375;28;20346;-72
2023/12/06 01:32:17;;;;;;;;;;;5.00;99.90;;;;;;5019646;28;19979;-72
2023/12/06 01:34:44;;;;;;;;;;;5.00;99.90;;;;;;5025656;28;19978;-73
2023/12/06 01:37:12;;;;;;;;;;;5.00;99.90;;;;;;5031708;28;19972;-72
2023/12/06 01:39:39;;;;;;;;;;;5.00;99.90;;;;;;5032332;28;19964;-73
2023/12/06 01:42:06;;;;;;;;;;;5.00;99.90;;;;;;5031540;28;19979;-72
2023/12/06 01:44:32;;;;;;;;;;;5.00;99.90;;;;;;5029618;28;19925;-72
2023/12/06 01:46:59;;;;;;;;;;;5.00;99.90;;;;;;5030512;28;19932;-72
2023/12/06 01:49:27;;;;;;;;;;;5.00;99.90;;;;;;5032110;28;19925;-73
2023/12/06 01:51:54;;;;;;;;;;;5.10;99.90;;;;;;5017335;28;19925;-74
2023/12/06 01:54:22;;;;;;;;;;;5.10;99.90;;;;;;5028091;28;19933;-73
2023/12/06 01:56:49;;;;;;;;;;;5.10;99.90;;;;;;5032098;28;20051;-73
2023/12/06 01:59:16;;;;;;;;;;;5.10;99.90;;;;;;5031725;28;19956;-73
2023/12/06 02:01:43;;;;;;;;;;;5.10;99.90;;;;;;5031320;28;19941;-73
2023/12/06 02:04:10;;;;;;;;;;;5.10;99.90;;;;;;5029375;28;19925;-73
2023/12/06 02:06:36;;;;;;;;;;;5.10;99.90;;;;;;5029376;28;19988;-73
2023/12/06 02:09:04;;;;;;;;;;;5.10;99.90;;;;;;5020960;28;19926;-72
2023/12/06 02:11:32;;;;;;;;;;;5.10;99.90;;;;;;5023902;28;19925;-73
2023/12/06 02:13:59;;;;;;;;;;;5.10;99.90;;;;;;5030177;28;19925;-73
2023/12/06 02:16:26;;;;;;;;;;;5.10;99.90;;;;;;5030904;28;19972;-72
2023/12/06 02:18:53;;;;;;;;;;;5.20;99.90;;;;;;5030629;28;19983;-72
2023/12/06 02:21:20;;;;;;;;;;;5.10;99.90;;;;;;5030713;28;19954;-72
2023/12/06 02:23:47;;;;;;;;;;;5.10;99.90;;;;;;5029374;28;19925;-72
2023/12/06 02:26:15;;;;;;;;;;;5.10;99.90;;;;;;5013558;28;19987;-72
2023/12/06 02:28:42;;;;;;;;;;;5.10;99.90;;;;;;5028686;28;19972;-72
2023/12/06 02:31:08;;;;;;;;;;;5.10;99.90;;;;;;5031900;28;20591;-72
2023/12/06 02:33:36;;;;;;;;;;;5.00;99.90;;;;;;5031238;28;19925;-73
2023/12/06 02:36:04;;;;;;;;;;;5.00;99.90;;;;;;5031044;28;20280;-72
2023/12/06 02:38:31;;;;;;;;;;;4.90;99.90;;;;;;5031168;28;20003;-72
2023/12/06 02:40:59;;;;;;;;;;;4.90;99.90;;;;;;5029596;28;19976;-71
2023/12/06 02:43:27;;;;;;;;;;;4.90;99.90;;;;;;5031110;28;19936;-71
2023/12/06 02:45:54;;;;;;;;;;;4.80;99.90;;;;;;5031318;28;20296;-72
2023/12/06 02:48:21;;;;;;;;;;;4.80;99.90;;;;;;5029814;28;19925;-73
2023/12/06 02:50:48;;;;;;;;;;;4.80;99.90;;;;;;5031546;28;19933;-73
2023/12/06 02:53:15;;;;;;;;;;;4.70;99.90;;;;;;5030799;28;19932;-71
2023/12/06 02:55:41;;;;;;;;;;;4.70;99.90;;;;;;5030355;28;19929;-72
2023/12/06 02:58:08;;;;;;;;;;;4.60;99.90;;;;;;5030230;28;19971;-72
2023/12/06 03:00:36;;;;;;;;;;;4.60;99.90;;;;;;5028968;28;20381;-73
2023/12/06 03:03:03;;;;;;;;;;;4.50;99.90;;;;;;5020853;28;19929;-73
2023/12/06 03:05:30;;;;;;;;;;;4.50;99.90;;;;;;5030961;28;19972;-72
2023/12/06 03:07:56;;;;;;;;;;;4.40;99.90;;;;;;5030607;28;19961;-72
2023/12/06 03:10:23;;;;;;;;;;;4.50;99.90;;;;;;5030785;28;19925;-72
2023/12/06 03:12:50;;;;;;;;;;;4.50;99.90;;;;;;5031361;28;19929;-72
2023/12/06 03:15:17;;;;;;;;;;;4.50;99.90;;;;;;5028304;28;20010;-72
2023/12/06 03:17:45;;;;;;;;;;;4.60;99.90;;;;;;5030751;28;19925;-72
2023/12/06 03:20:12;;;;;;;;;;;4.60;99.90;;;;;;5030207;28;19936;-72
2023/12/06 03:22:39;;;;;;;;;;;4.60;99.90;;;;;;5030965;28;19968;-73
2023/12/06 03:25:07;;;;;;;;;;;4.50;99.90;;;;;;5029528;28;20396;-73
2023/12/06 03:27:33;;;;;;;;;;;4.50;99.90;;;;;;5031710;28;19925;-73
2023/12/06 03:30:00;;;;;;;;;;;4.50;99.90;;;;;;5033901;28;19995;-72
2023/12/06 03:32:27;;;;;;;;;;;4.40;99.90;;;;;;5030322;28;20380;-72
2023/12/06 03:34:55;;;;;;;;;;;4.40;99.90;;;;;;5033333;28;19929;-73
2023/12/06 03:37:22;;;;;;;;;;;4.40;99.90;;;;;;5033857;28;19925;-73
2023/12/06 03:39:48;;;;;;;;;;;4.30;99.90;;;;;;5034158;28;19933;-73
2023/12/06 03:42:15;;;;;;;;;;;4.30;99.90;;;;;;5033287;28;19932;-73
2023/12/06 03:44:42;;;;;;;;;;;4.30;99.90;;;;;;5033635;28;19953;-74
2023/12/06 03:47:09;;;;;;;;;;;4.30;99.90;;;;;;5034385;28;20402;-73
2023/12/06 03:49:35;;;;;;;;;;;4.30;99.90;;;;;;5028820;28;20372;-73
2023/12/06 03:52:04;;;;;;;;;;;4.30;99.90;;;;;;5025695;28;19948;-73
2023/12/06 03:54:31;;;;;;;;;;;4.40;99.90;;;;;;5032253;28;19991;-73
2023/12/06 03:56:59;;;;;;;;;;;4.40;99.90;;;;;;5027085;28;20431;-72
2023/12/06 03:59:26;;;;;;;;;;;4.40;99.90;;;;;;5032543;28;20405;-72
2023/12/06 04:01:53;;;;;;;;;;;4.40;99.90;;;;;;5033274;28;19925;-72
2023/12/06 04:04:19;;;;;;;;;;;4.40;99.90;;;;;;5033285;28;19929;-72
2023/12/06 04:06:46;;;;;;;;;;;4.50;99.90;;;;;;5029473;28;19929;-72
2023/12/06 04:09:14;;;;;;;;;;;4.50;99.90;;;;;;5032580;28;19995;-73
2023/12/06 04:11:41;;;;;;;;;;;4.50;99.90;;;;;;5033315;28;19929;-72
2023/12/06 04:14:08;;;;;;;;;;;4.50;99.90;;;;;;5033033;28;19926;-72
2023/12/06 04:16:36;;;;;;;;;;;4.50;99.90;;;;;;5033223;28;20007;-72
2023/12/06 04:19:03;;;;;;;;;;;4.50;99.90;;;;;;5033558;28;19932;-71
2023/12/06 04:21:30;;;;;;;;;;;4.50;99.90;;;;;;5031971;28;19929;-71
2023/12/06 04:23:56;;;;;;;;;;;4.50;99.90;;;;;;5030653;28;19970;-70
2023/12/06 04:26:25;;;;;;;;;;;4.50;99.90;;;;;;5032480;28;19979;-71
2023/12/06 04:28:51;;;;;;;;;;;4.60;99.90;;;;;;5032883;28;19957;-72
2023/12/06 04:31:18;;;;;;;;;;;4.60;99.90;;;;;;5032499;28;19925;-73
2023/12/06 04:33:45;;;;;;;;;;;4.60;99.90;;;;;;5031065;28;19925;-72
2023/12/06 04:36:12;;;;;;;;;;;4.60;99.90;;;;;;5027625;28;20335;-73
2023/12/06 04:38:39;;;;;;;;;;;4.60;99.90;;;;;;5032651;28;19929;-72
2023/12/06 04:41:05;;;;;;;;;;;4.60;99.90;;;;;;5032620;28;19986;-72
2023/12/06 04:43:34;;;;;;;;;;;4.60;99.90;;;;;;5032423;28;19971;-72
2023/12/06 04:46:00;;;;;;;;;;;4.60;99.90;;;;;;5032761;28;19925;-73
2023/12/06 04:48:27;;;;;;;;;;;4.60;99.90;;;;;;5031662;28;19953;-72
2023/12/06 04:50:54;;;;;;;;;;;4.60;99.90;;;;;;5024803;28;19931;-72
2023/12/06 04:53:20;;;;;;;;;;;4.60;99.90;;;;;;5033137;28;19925;-72
2023/12/06 04:55:47;;;;;;;;;;;4.60;99.90;;;;;;5032003;28;20006;-72
2023/12/06 04:58:14;;;;;;;;;;;4.60;99.90;;;;;;5022042;28;19973;-71
2023/12/06 05:00:43;;;;;;;;;;;4.60;99.90;;;;;;5030446;28;19952;-71
2023/12/06 05:03:10;;;;;;;;;;;4.60;99.90;;;;;;5032366;28;19932;-71
2023/12/06 05:05:37;;;;;;;;;;;4.70;99.90;;;;;;5033162;28;20438;-73
2023/12/06 05:08:04;;;;;;;;;;;4.70;99.90;;;;;;5037200;28;19925;-71
2023/12/06 05:10:30;;;;;;;;;;;4.70;99.90;;;;;;5040767;28;19972;-71
2023/12/06 05:12:58;;;;;;;;;;;4.70;99.90;;;;;;5032076;28;19971;-72
2023/12/06 05:15:24;;;;;;;;;;;4.70;99.90;;;;;;5032528;28;19995;-73
2023/12/06 05:17:52;;;;;;;;;;;4.70;99.90;;;;;;5033233;28;19937;-74
2023/12/06 05:20:19;;;;;;;;;;;4.80;99.90;;;;;;5032647;28;20002;-74
2023/12/06 05:22:46;;;;;;;;;;;4.80;99.90;;;;;;5052074;28;19932;-74
2023/12/06 05:25:13;;;;;;;;;;;4.80;99.90;;;;;;5037638;28;19971;-73
2023/12/06 05:27:40;;;;;;;;;;;4.80;99.90;;;;;;5032309;28;19933;-74
2023/12/06 05:30:07;;;;;;;;;;;4.80;99.90;;;;;;5032057;28;20466;-74
2023/12/06 05:32:33;;;;;;;;;;;4.80;99.90;;;;;;5031605;28;19925;-74
2023/12/06 05:35:02;;;;;;;;;;;4.80;99.90;;;;;;5030777;28;20458;-75
2023/12/06 05:37:28;;;;;;;;;;;4.80;99.90;;;;;;5030074;28;19925;-75
2023/12/06 05:39:55;;;;;;;;;;;4.80;99.90;;;;;;5030037;28;20380;-74
2023/12/06 05:42:22;;;;;;;;;;;4.80;99.90;;;;;;5031154;28;20351;-73
2023/12/06 05:44:49;;;;;;;;;;;4.80;99.90;;;;;;5027709;28;20530;-73
2023/12/06 05:47:15;;;;;;;;;;;4.70;99.90;;;;;;5012765;28;19987;-73
2023/12/06 05:49:42;;;;;;;;;;;4.70;99.90;;;;;;5012830;28;20274;-74
2023/12/06 05:52:10;;;;;;;;;;;4.70;99.90;;;;;;5013056;28;20385;-74
2023/12/06 05:54:37;;;;;;;;;;;4.70;99.90;;;;;;5019958;28;19979;-74
2023/12/06 05:57:04;;;;;;;;;;;4.80;99.90;;;;;;5031757;28;20688;-74
2023/12/06 05:59:31;;;;;;;;;;;4.80;99.90;;;;;;5032482;28;19925;-73
2023/12/06 06:01:58;;;;;;;;;;;4.80;99.90;;;;;;5030484;28;20340;-73
2023/12/06 06:04:26;;;;;;;;;;;4.80;99.90;;;;;;5032058;28;19925;-74
2023/12/06 06:06:53;;;;;;;;;;;4.80;99.90;;;;;;5019336;28;19933;-73
2023/12/06 06:09:21;;;;;;;;;;;4.80;99.90;;;;;;5030767;28;20388;-73
2023/12/06 06:11:48;;;;;;;;;;;4.80;99.90;;;;;;5032028;28;20015;-73
2023/12/06 06:14:15;;;;;;;;;;;4.90;99.90;;;;;;5031798;28;19925;-74
2023/12/06 06:16:41;;;;;;;;;;;4.80;99.90;;;;;;5031626;28;20351;-73
2023/12/06 06:19:08;;;;;;;;;;;4.80;99.90;;;;;;5031520;28;20388;-73
2023/12/06 06:21:35;;;;;;;;;;;4.80;99.90;;;;;;5031067;28;19925;-73
2023/12/06 06:24:02;;;;;;;;;;;4.70;99.90;;;;;;5023050;28;20351;-73
2023/12/06 06:26:30;;;;;;;;;;;4.60;99.90;;;;;;5027858;28;19925;-73
2023/12/06 06:28:57;;;;;;;;;;;4.40;99.90;;;;;;5027617;28;19929;-73
2023/12/06 06:31:23;;;;;;;;;;;4.40;99.90;;;;;;5030159;28;19925;-73
2023/12/06 06:33:50;;;;;;;;;;;4.40;99.90;;;;;;5031677;28;20431;-74
2023/12/06 06:36:17;;;;;;;;;;;4.40;99.90;;;;;;5030789;28;20430;-73
2023/12/06 06:38:44;;;;;;;;;;;4.40;99.90;;;;;;5028799;28;19932;-73
2023/12/06 06:41:11;;;;;;;;;;;4.50;99.90;;;;;;5019563;28;19952;-73
2023/12/06 06:43:39;;;;;;;;;;;4.50;99.90;;;;;;5030646;28;19983;-73
2023/12/06 06:46:06;;;;;;;;;;;4.50;99.90;;;;;;5023701;28;19925;-73
2023/12/06 06:48:32;;;;;;;;;;;4.50;99.90;;;;;;5031163;28;19925;-72
2023/12/06 06:50:59;;;;;;;;;;;4.50;99.90;;;;;;5028647;28;19925;-74
2023/12/06 06:53:26;;;;;;;;;;;4.50;99.90;;;;;;5027409;28;20038;-74
2023/12/06 06:55:53;;;;;;;;;;;4.50;99.90;;;;;;5016600;28;20331;-72
2023/12/06 06:58:20;;;;;;;;;;;4.50;99.90;;;;;;5030779;28;19972;-74
2023/12/06 07:00:48;;;;;;;;;;;4.50;99.90;;;;;;5029306;28;19945;-73
2023/12/06 07:03:15;;;;;;;;;;;4.40;99.90;;;;;;5031073;28;19925;-73
2023/12/06 07:05:42;;;;;;;;;;;4.30;99.90;;;;;;5031787;28;19944;-73
2023/12/06 07:08:09;;;;;;;;;;;4.30;99.90;;;;;;5021005;28;19929;-69
2023/12/06 07:10:37;;;;;;;;;;;4.20;99.90;;;;;;5030368;28;19937;-74
2023/12/06 07:13:07;;;;;;;;;;;4.10;99.90;;;;;;5032269;28;19925;-75
2023/12/06 07:15:34;;;;;;;;;;;4.10;99.90;;;;;;5022781;28;19981;-72
2023/12/06 07:18:02;;;;;;;;;;;4.10;99.90;;;;;;5027171;28;20039;-73
2023/12/06 07:20:29;;;;;;;;;;;4.10;99.90;;;;;;5035032;28;19987;-72
2023/12/06 07:22:57;;;;;;;;;;;4.10;99.90;;;;;;5032387;28;20233;-70
2023/12/06 07:25:23;;;;;;;;;;;4.10;99.90;;;;;;5033130;28;20306;-72
2023/12/06 07:27:50;;;;;;;;;;;4.10;99.90;;;;;;5033403;28;19924;-72
2023/12/06 07:30:18;;;;;;;;;;;4.00;99.90;;;;;;5032302;28;19971;-73
2023/12/06 07:32:45;;;;;;;;;;;4.00;99.90;;;;;;5029737;28;19929;-73
2023/12/06 07:35:13;;;;;;;;;;;3.90;99.90;;;;;;5031824;28;19929;-70
2023/12/06 07:37:41;;;;;;;;;;;3.90;99.90;;;;;;5032053;28;19955;-69
2023/12/06 07:40:11;;;;;;;;;;;3.90;99.90;;;;;;5020844;28;19948;-70
2023/12/06 07:42:37;;;;;;;;;;;3.80;99.90;;;;;;5030892;28;19982;-70
2023/12/06 07:45:04;;;;;;;;;;;3.80;99.90;;;;;;5028771;28;20442;-70
2023/12/06 07:47:31;;;;;;;;;;;3.80;99.90;;;;;;5029209;28;20021;-70
2023/12/06 07:49:58;;;;;;;;;;;3.70;99.90;;;;;;5029766;28;19968;-70
2023/12/06 07:52:26;;;;;;;;;;;3.80;99.90;;;;;;5033059;28;19965;-71
2023/12/06 07:54:53;;;;;;;;;;;3.80;99.90;;;;;;5032195;28;19925;-70
2023/12/06 07:57:20;;;;;;;;;;;3.80;99.90;;;;;;5014969;28;19926;-69
2023/12/06 07:59:47;;;;;;;;;;;3.80;99.90;;;;;;5014393;28;19937;-70
2023/12/06 08:02:14;;;;;;;;;;;3.80;99.90;;;;;;5023734;28;19980;-70
2023/12/06 08:04:41;;;;;;;;;;;3.80;99.90;;;;;;5022132;28;19976;-70
2023/12/06 08:07:08;;;;;;;;;;;3.90;99.90;;;;;;5028314;28;19995;-69
2023/12/06 08:09:36;;;;;;;;;;;3.80;99.90;;;;;;5027619;28;19925;-70
2023/12/06 08:12:03;;;;;;;;;;;3.80;99.90;;;;;;5023383;28;19999;-70
2023/12/06 08:14:30;;;;;;;;;;;3.80;99.90;;;;;;5028225;28;20003;-70
2023/12/06 08:16:56;;;;;;;;;;;3.80;99.90;;;;;;5022955;28;20372;-70
2023/12/06 08:19:23;;;;;;;;;;;3.80;99.90;;;;;;5018863;28;19980;-70
2023/12/06 08:21:50;;;;;;;;;;;3.90;99.90;;;;;;5023311;28;20277;-69
2023/12/06 08:24:17;;;;;;;;;;;3.90;99.90;;;;;;5016766;28;19940;-70
2023/12/06 08:26:45;;;;;;;;;;;3.90;99.90;;;;;;5023529;28;20383;-71
2023/12/06 08:29:12;;;;;;;;;;;4.00;99.90;;;;;;5026256;28;20423;-70
2023/12/06 08:31:39;;;;;;;;;;;4.20;99.90;;;;;;5026612;28;19926;-70
2023/12/06 08:34:05;;;;;;;;;;;4.30;99.90;;;;;;5021702;28;20426;-71
2023/12/06 08:36:32;;;;;;;;;;;4.40;99.90;;;;;;5027793;28;19925;-70
2023/12/06 08:38:59;;;;;;;;;;;4.50;99.90;;;;;;5021621;28;19979;-70
2023/12/06 08:41:26;;;;;;;;;;;4.60;99.90;;;;;;5017011;28;19925;-71
2023/12/06 08:43:54;;;;;;;;;;;4.80;99.90;;;;;;5022315;28;19925;-72
2023/12/06 08:46:22;;;;;;;;;;;4.90;99.90;;;;;;5029382;28;19925;-72
2023/12/06 08:48:49;;;;;;;;;;;4.90;99.90;;;;;;5020439;28;22080;-72
2023/12/06 08:51:16;;;;;;;;;;;5.00;99.90;;;;;;5023779;28;20280;-72
2023/12/06 08:53:43;;;;;;;;;;;5.00;99.90;;;;;;5018927;28;20355;-70
2023/12/06 08:56:10;;;;;;;;;;;5.00;99.90;;;;;;5029245;28;19983;-71
2023/12/06 08:58:37;;;;;;;;;;;5.10;99.90;;;;;;5027065;28;19994;-70
2023/12/06 09:01:05;;;;;;;;;;;5.10;99.90;;;;;;5030842;28;19956;-70
2023/12/06 09:03:32;;;;;;;;;;;5.10;99.90;;;;;;5028371;28;19979;-70
2023/12/06 09:05:58;;;;;;;;;;;5.20;99.90;;;;;;5024230;28;20388;-71
2023/12/06 09:08:25;;;;;;;;;;;5.60;99.90;;;;;;5029243;28;19925;-71
2023/12/06 09:10:52;;;;;;;;;;;5.70;99.90;;;;;;5026195;28;19972;-70
2023/12/06 09:13:19;;;;;;;;;;;5.60;99.90;;;;;;5023760;28;19977;-71
2023/12/06 09:15:46;;;;;;;;;;;5.50;99.90;;;;;;5011970;28;20277;-71
2023/12/06 09:18:14;;;;;;;;;;;5.40;99.90;;;;;;5019553;28;19972;-71
2023/12/06 09:20:42;;;;;;;;;;;5.40;99.90;;;;;;5032092;28;19979;-71
2023/12/06 09:23:09;;;;;;;;;;;5.40;99.90;;;;;;5030746;28;19972;-71
2023/12/06 09:25:36;;;;;;;;;;;5.40;99.90;;;;;;5021260;28;19955;-71
2023/12/06 09:28:04;;;;;;;;;;;5.40;99.90;;;;;;5023328;28;20035;-71
2023/12/06 09:30:31;;;;;;;;;;;5.40;99.90;;;;;;5019475;28;20376;-71
2023/12/06 09:32:57;;;;;;;;;;;5.50;99.90;;;;;;5020654;28;19929;-70
2023/12/06 09:35:26;;;;;;;;;;;5.50;99.90;;;;;;5021622;28;19971;-70
2023/12/06 09:37:52;;;;;;;;;;;5.60;99.90;;;;;;5025409;28;19987;-70
2023/12/06 09:40:20;;;;;;;;;;;5.70;99.90;;;;;;5024457;28;20066;-69
2023/12/06 09:42:48;;;;;;;;;;;5.70;99.90;;;;;;5020241;28;20079;-69
2023/12/06 09:45:15;;;;;;;;;;;5.70;99.90;;;;;;5017888;28;20018;-69
2023/12/06 09:47:43;;;;;;;;;;;5.60;99.90;;;;;;5019703;28;19929;-70
2023/12/06 09:50:10;;;;;;;;;;;5.50;99.90;;;;;;5018580;28;19932;-70
2023/12/06 09:52:39;;;;;;;;;;;5.50;99.90;;;;;;5018648;28;19933;-70
2023/12/06 09:55:08;;;;;;;;;;;5.60;99.90;;;;;;5018592;28;20509;-70
2023/12/06 09:57:34;;;;;;;;;;;5.70;99.90;;;;;;5020491;28;20650;-70
2023/12/06 10:00:02;;;;;;;;;;;5.80;99.90;;;;;;5018978;28;20470;-71
2023/12/06 10:02:29;;;;;;;;;;;5.90;99.90;;;;;;5020117;28;20055;-70
2023/12/06 10:04:58;;;;;;;;;;;6.00;99.90;;;;;;5014185;28;20460;-71
2023/12/06 10:07:31;;;;;;;;;;;6.20;99.90;;;;;;5019535;28;20020;-70
2023/12/06 10:10:00;;;;;;;;;;;6.30;99.90;;;;;;5017286;28;19933;-70
2023/12/06 10:12:27;;;;;;;;;;;6.30;99.90;;;;;;5023481;28;19932;-70
2023/12/06 10:14:57;;;;;;;;;;;6.50;99.90;;;;;;5020424;28;20417;-70
2023/12/06 10:17:25;;;;;;;;;;;6.70;99.90;;;;;;5020679;28;19925;-71
2023/12/06 10:19:51;;;;;;;;;;;6.80;99.90;;;;;;5019315;28;19952;-71
2023/12/06 10:22:18;;;;;;;;;;;6.80;99.90;;;;;;5019575;28;19977;-71
2023/12/06 10:24:45;;;;;;;;;;;6.80;99.90;;;;;;5021028;28;19991;-70
2023/12/06 10:27:13;;;;;;;;;;;6.80;99.90;;;;;;5020296;28;19937;-71
2023/12/06 10:29:40;;;;;;;;;;;6.70;99.90;;;;;;5020801;28;19987;-71
2023/12/06 10:32:07;;;;;;;;;;;6.70;99.90;;;;;;5019105;28;19960;-72
2023/12/06 10:34:34;;;;;;;;;;;6.70;99.90;;;;;;5017300;28;19926;-70
2023/12/06 10:37:03;;;;;;;;;;;6.70;99.90;;;;;;5033710;28;19925;-71
2023/12/06 10:39:30;;;;;;;;;;;6.60;99.90;;;;;;5029734;28;19925;-69
2023/12/06 10:41:59;;;;;;;;;;;6.60;99.90;;;;;;5027442;28;19957;-69
2023/12/06 10:44:29;;;;;;;;;;;6.70;99.90;;;;;;5023149;28;20449;-70
2023/12/06 10:46:56;;;;;;;;;;;6.80;99.90;;;;;;5024669;28;20420;-70
2023/12/06 10:49:22;;;;;;;;;;;6.80;99.90;;;;;;5029004;28;19925;-71
2023/12/06 10:51:49;;;;;;;;;;;6.80;99.90;;;;;;5028794;28;19978;-71
2023/12/06 10:54:16;;;;;;;;;;;6.80;99.90;;;;;;5023320;28;20115;-71
2023/12/06 10:56:43;;;;;;;;;;;6.80;99.90;;;;;;5019306;28;19925;-70
2023/12/06 10:59:10;;;;;;;;;;;6.80;99.90;;;;;;5020501;28;19957;-72
2023/12/06 11:01:39;;;;;;;;;;;6.80;99.90;;;;;;5022286;28;20036;-70
2023/12/06 11:04:07;;;;;;;;;;;6.80;99.90;;;;;;5023022;28;20353;-70
2023/12/06 11:06:39;;;;;;;;;;;6.90;99.90;;;;;;5021294;28;20003;-72
2023/12/06 11:09:12;;;;;;;;;;;6.90;99.90;;;;;;5021725;28;20049;-73
2023/12/06 11:11:45;;;;;;;;;;;7.00;99.90;;;;;;5023062;28;19925;-73
2023/12/06 11:14:21;;;;;;;;;;;7.00;99.90;;;;;;5023404;28;20008;-69
2023/12/06 11:16:53;;;;;;;;;;;7.00;99.90;;;;;;5020810;28;19941;-69
2023/12/06 11:19:20;;;;;;;;;;;6.90;99.90;;;;;;5026742;28;19925;-70
2023/12/06 11:21:47;;;;;;;;;;;7.00;99.90;;;;;;5020545;28;19964;-68
2023/12/06 11:24:15;;;;;;;;;;;7.00;99.90;;;;;;5025698;28;19933;-68
2023/12/06 11:26:41;;;;;;;;;;;7.00;99.90;;;;;;5023401;28;20011;-69
2023/12/06 11:29:08;;;;;;;;;;;7.00;99.90;;;;;;5022441;28;19991;-69
2023/12/06 11:31:37;;;;;;;;;;;6.90;99.90;;;;;;5021967;28;19929;-70
2023/12/06 11:34:06;;;;;;;;;;;6.90;99.90;;;;;;5021795;28;19936;-70
2023/12/06 11:36:35;;;;;;;;;;;6.90;99.90;;;;;;5023884;28;19925;-70
2023/12/06 11:39:13;;;;;;;;;;;6.90;99.90;;;;;;5021571;28;19925;-70
2023/12/06 11:41:47;;;;;;;;;;;6.90;99.90;;;;;;5021355;28;19956;-69
2023/12/06 11:44:16;;;;;;;;;;;6.90;99.90;;;;;;5023326;28;19946;-69
2023/12/06 11:46:48;;;;;;;;;;;7.00;99.90;;;;;;5020831;28;20430;-70
2023/12/06 11:49:17;;;;;;;;;;;7.10;99.90;;;;;;5026002;28;19925;-70
2023/12/06 11:51:44;;;;;;;;;;;7.20;99.90;;;;;;5024346;28;19932;-70
2023/12/06 11:54:12;;;;;;;;;;;7.40;99.90;;;;;;5025894;28;20419;-70
2023/12/06 11:56:39;;;;;;;;;;;7.40;99.90;;;;;;5020172;28;19936;-70
2023/12/06 11:59:06;;;;;;;;;;;7.30;99.90;;;;;;5022665;28;19925;-70
2023/12/06 12:01:33;;;;;;;;;;;7.30;99.90;;;;;;5016735;28;19983;-70
2023/12/06 12:04:00;;;;;;;;;;;7.40;99.90;;;;;;5026961;28;19993;-70
2023/12/06 12:06:29;;;;;;;;;;;7.40;99.90;;;;;;5029217;28;19929;-70
2023/12/06 12:08:57;;;;;;;;;;;7.40;99.90;;;;;;5022968;28;19944;-71
2023/12/06 12:11:24;;;;;;;;;;;7.50;99.90;;;;;;5020627;28;19925;-70
2023/12/06 12:13:52;;;;;;;;;;;7.50;99.90;;;;;;5022540;28;19955;-70
2023/12/06 12:16:19;;;;;;;;;;;7.40;99.90;;;;;;5020738;28;19936;-69
2023/12/06 12:18:46;;;;;;;;;;;7.30;99.90;;;;;;5016595;28;20688;-67
2023/12/06 12:21:16;;;;;;;;;;;7.20;99.90;;;;;;5022535;28;19926;-70
2023/12/06 12:23:46;;;;;;;;;;;7.10;99.90;;;;;;5024545;28;19976;-71
2023/12/06 12:26:13;;;;;;;;;;;7.10;99.90;;;;;;5021059;28;19956;-71
2023/12/06 12:28:40;;;;;;;;;;;7.00;99.90;;;;;;5022902;28;19960;-70
2023/12/06 12:31:08;;;;;;;;;;;7.00;99.90;;;;;;5018125;28;20019;-71
2023/12/06 12:33:35;;;;;;;;;;;7.00;99.90;;;;;;5024003;28;20296;-71
2023/12/06 12:36:03;;;;;;;;;;;7.00;99.90;;;;;;5031004;28;19956;-70
2023/12/06 12:38:30;;;;;;;;;;;7.00;99.90;;;;;;5023009;28;20312;-70
2023/12/06 12:41:00;;;;;;;;;;;7.00;99.90;;;;;;5032729;28;19960;-70
2023/12/06 12:43:27;;;;;;;;;;;7.00;99.90;;;;;;5029123;28;19925;-71
2023/12/06 12:45:53;;;;;;;;;;;6.90;99.90;;;;;;5013820;28;19972;-69
2023/12/06 12:48:20;;;;;;;;;;;7.00;99.90;;;;;;5022195;28;19929;-72
2023/12/06 12:50:48;;;;;;;;;;;7.00;99.90;;;;;;5022696;28;19937;-69
2023/12/06 12:53:14;;;;;;;;;;;7.00;99.90;;;;;;5014560;28;19929;-69
2023/12/06 12:55:42;;;;;;;;;;;7.00;99.90;;;;;;5029169;28;19925;-69
2023/12/06 12:58:10;;;;;;;;;;;7.00;99.90;;;;;;5030812;28;19925;-69
2023/12/06 13:00:37;;;;;;;;;;;7.00;99.90;;;;;;5028277;28;20103;-69
2023/12/06 13:03:04;;;;;;;;;;;7.10;99.90;;;;;;5020683;28;19936;-69
2023/12/06 13:05:31;;;;;;;;;;;7.10;99.90;;;;;;5018177;28;20369;-68
2023/12/06 13:07:59;;;;;;;;;;;7.00;99.90;;;;;;5015377;28;20304;-70
2023/12/06 13:10:28;;;;;;;;;;;7.00;99.90;;;;;;5012486;28;19929;-69
2023/12/06 13:12:55;;;;;;;;;;;7.00;99.90;;;;;;5008354;28;19940;-67
2023/12/06 13:15:23;;;;;;;;;;;7.10;99.90;;;;;;5006456;28;19937;-69
2023/12/06 13:17:50;;;;;;;;;;;6.90;99.90;;;;;;5011312;28;19979;-69
2023/12/06 13:20:17;;;;;;;;;;;6.90;99.90;;;;;;5004067;28;19933;-70
2023/12/06 13:22:44;;;;;;;;;;;6.80;99.90;;;;;;5001778;28;19953;-67
2023/12/06 13:25:10;;;;;;;;;;;6.80;99.90;;;;;;5006714;28;19977;-69
2023/12/06 13:27:37;;;;;;;;;;;6.60;99.90;;;;;;5006013;28;20011;-69
2023/12/06 13:30:04;;;;;;;;;;;6.60;99.90;;;;;;5003272;28;19937;-69
2023/12/06 13:32:33;;;;;;;;;;;6.60;99.90;;;;;;5013206;28;19925;-70
2023/12/06 13:34:59;;;;;;;;;;;6.60;99.90;;;;;;5005816;28;19933;-69
2023/12/06 13:37:26;;;;;;;;;;;6.50;99.90;;;;;;5012314;28;20012;-69
2023/12/06 13:39:53;;;;;;;;;;;6.50;99.90;;;;;;5011811;28;20388;-68
2023/12/06 13:42:19;;;;;;;;;;;6.50;99.90;;;;;;5010738;28;19971;-70
2023/12/06 13:44:46;;;;;;;;;;;6.50;99.90;;;;;;5003636;28;20014;-70
2023/12/06 13:47:13;;;;;;;;;;;6.60;99.90;;;;;;5006018;28;19929;-69
2023/12/06 13:49:41;;;;;;;;;;;6.70;99.90;;;;;;5007937;28;19936;-69
2023/12/06 13:52:08;;;;;;;;;;;6.70;99.90;;;;;;5025670;28;19929;-69
2023/12/06 13:54:36;;;;;;;;;;;6.80;99.90;;;;;;5011382;28;19985;-71
2023/12/06 13:57:03;;;;;;;;;;;6.70;99.90;;;;;;5008988;28;20308;-69
2023/12/06 13:59:31;;;;;;;;;;;6.70;99.90;;;;;;5018260;28;20177;-69
2023/12/06 14:01:58;;;;;;;;;;;6.70;99.90;;;;;;4999145;28;19940;-69
2023/12/06 14:04:24;;;;;;;;;;;6.70;99.90;;;;;;4999822;28;21086;-70
2023/12/06 14:06:53;;;;;;;;;;;6.70;99.90;;;;;;4995339;28;19961;-69
2023/12/06 14:09:20;;;;;;;;;;;6.70;99.90;;;;;;5016610;28;19969;-69
2023/12/06 14:11:47;;;;;;;;;;;6.60;99.90;;;;;;5024704;28;19960;-69
2023/12/06 14:14:14;;;;;;;;;;;6.50;99.90;;;;;;5011150;28;19925;-67
2023/12/06 14:16:41;;;;;;;;;;;6.40;99.90;;;;;;5018995;28;20015;-67
2023/12/06 14:19:08;;;;;;;;;;;6.30;99.90;;;;;;5005504;28;20411;-67
2023/12/06 14:21:36;;;;;;;;;;;6.30;99.90;;;;;;5012009;28;20394;-67
2023/12/06 14:24:05;;;;;;;;;;;6.30;99.90;;;;;;5014041;28;19925;-70
2023/12/06 14:26:32;;;;;;;;;;;6.30;99.90;;;;;;5011873;28;20018;-69
2023/12/06 14:28:59;;;;;;;;;;;6.10;99.90;;;;;;5025228;28;19932;-70
2023/12/06 14:31:26;;;;;;;;;;;6.10;99.90;;;;;;5021738;28;19968;-70